createdAt,value
2022-07-29T00:01:47.420Z,17.79
2022-07-29T00:04:19.818Z,17.75
2022-07-29T00:06:53.964Z,17.72
2022-07-29T00:09:33.481Z,17.69
2022-07-29T00:12:26.289Z,17.66
2022-07-29T00:14:59.502Z,17.62
2022-07-29T00:17:31.589Z,17.60
2022-07-29T00:20:00.561Z,17.58
2022-07-29T00:22:31.569Z,17.55
2022-07-29T00:25:00.616Z,17.52
2022-07-29T00:27:28.787Z,17.50
2022-07-29T00:29:58.174Z,17.48
2022-07-29T00:32:26.006Z,17.45
2022-07-29T00:35:13.131Z,17.42
2022-07-29T00:37:41.130Z,17.39
2022-07-29T00:40:09.789Z,17.37
2022-07-29T00:42:51.974Z,17.32
2022-07-29T00:45:23.313Z,17.30
2022-07-29T00:47:51.658Z,17.27
2022-07-29T00:50:20.073Z,17.24
2022-07-29T00:52:48.588Z,17.22
2022-07-29T00:55:17.005Z,17.20
2022-07-29T00:57:47.493Z,17.18
2022-07-29T01:00:19.580Z,17.14
2022-07-29T01:02:49.439Z,17.12
2022-07-29T01:05:24.135Z,17.11
2022-07-29T01:07:55.470Z,17.09
2022-07-29T01:10:24.616Z,17.06
2022-07-29T01:12:56.205Z,17.03
2022-07-29T01:15:25.072Z,17.00
2022-07-29T01:18:08.998Z,16.97
2022-07-29T01:20:46.196Z,16.92
2022-07-29T01:23:35.221Z,16.89
2022-07-29T01:26:29.779Z,16.86
2022-07-29T01:29:09.545Z,16.81
2022-07-29T01:31:53.836Z,16.77
2022-07-29T01:34:55.523Z,16.71
2022-07-29T01:37:26.466Z,16.67
2022-07-29T01:39:58.542Z,16.64
2022-07-29T01:42:37.853Z,16.56
2022-07-29T01:45:12.173Z,16.50
2022-07-29T01:47:46.515Z,16.43
2022-07-29T01:50:18.584Z,16.38
2022-07-29T01:52:57.931Z,16.30
2022-07-29T01:55:30.781Z,16.23
2022-07-29T01:58:01.264Z,16.16
2022-07-29T02:00:31.473Z,16.09
2022-07-29T02:03:06.905Z,16.03
2022-07-29T02:05:37.073Z,16.00
2022-07-29T02:08:07.549Z,15.96
2022-07-29T02:10:36.652Z,15.94
2022-07-29T02:13:06.788Z,15.91
2022-07-29T02:15:37.225Z,15.88
2022-07-29T02:18:16.899Z,15.87
2022-07-29T02:20:53.818Z,15.85
2022-07-29T02:23:25.056Z,15.83
2022-07-29T02:25:57.681Z,15.79
2022-07-29T02:28:28.707Z,15.77
2022-07-29T02:31:00.869Z,15.74
2022-07-29T02:33:31.877Z,15.73
2022-07-29T02:36:03.532Z,15.72
2022-07-29T02:38:51.442Z,15.70
2022-07-29T02:41:25.427Z,15.69
2022-07-29T02:43:58.285Z,15.67
2022-07-29T02:46:34.049Z,15.65
2022-07-29T02:49:14.660Z,15.63
2022-07-29T02:51:46.899Z,15.62
2022-07-29T02:54:30.082Z,15.60
2022-07-29T02:57:01.837Z,15.58
2022-07-29T02:59:35.371Z,15.55
2022-07-29T03:02:05.917Z,15.54
2022-07-29T03:04:35.589Z,15.51
2022-07-29T03:07:04.784Z,15.49
2022-07-29T03:09:33.227Z,15.46
2022-07-29T03:12:02.403Z,15.43
2022-07-29T03:14:31.438Z,15.41
2022-07-29T03:16:59.721Z,15.37
2022-07-29T03:19:28.730Z,15.34
2022-07-29T03:21:58.298Z,15.32
2022-07-29T03:24:28.128Z,15.30
2022-07-29T03:26:57.586Z,15.29
2022-07-29T03:29:34.093Z,15.30
2022-07-29T03:32:08.322Z,15.30
2022-07-29T03:34:39.015Z,15.29
2022-07-29T03:37:08.474Z,15.27
2022-07-29T03:39:43.310Z,15.30
2022-07-29T03:42:15.311Z,15.33
2022-07-29T03:44:46.696Z,15.39
2022-07-29T03:47:16.462Z,15.45
2022-07-29T03:49:47.678Z,15.48
2022-07-29T03:52:16.064Z,15.51
2022-07-29T03:54:44.484Z,15.54
2022-07-29T03:57:13.261Z,15.56
2022-07-29T03:59:44.046Z,15.57
2022-07-29T04:02:14.638Z,15.61
2022-07-29T04:04:46.728Z,15.63
2022-07-29T04:07:15.763Z,15.67
2022-07-29T04:09:43.848Z,15.71
2022-07-29T04:12:12.992Z,15.75
2022-07-29T04:14:41.042Z,15.79
2022-07-29T04:17:09.021Z,15.85
2022-07-29T04:19:37.255Z,15.90
2022-07-29T04:22:05.730Z,15.96
2022-07-29T04:24:36.653Z,16.04
2022-07-29T04:27:06.693Z,16.14
2022-07-29T04:29:34.474Z,16.24
2022-07-29T04:32:02.349Z,16.34
2022-07-29T04:34:30.567Z,16.43
2022-07-29T04:36:58.555Z,16.55
2022-07-29T04:39:29.646Z,16.65
2022-07-29T04:41:59.332Z,16.77
2022-07-29T04:44:28.942Z,16.90
2022-07-29T04:46:57.841Z,17.03
2022-07-29T04:49:27.348Z,17.15
2022-07-29T04:51:55.790Z,17.28
2022-07-29T04:54:23.993Z,17.39
2022-07-29T04:56:54.140Z,17.54
2022-07-29T04:59:22.254Z,17.67
2022-07-29T05:01:50.954Z,17.78
2022-07-29T05:04:20.121Z,17.87
2022-07-29T05:06:49.312Z,17.96
2022-07-29T05:09:17.230Z,18.05
2022-07-29T05:11:45.444Z,18.15
2022-07-29T05:14:13.624Z,18.22
2022-07-29T05:16:44.504Z,18.29
2022-07-29T05:19:14.499Z,18.33
2022-07-29T05:21:42.846Z,18.40
2022-07-29T05:24:10.871Z,18.47
2022-07-29T05:26:39.331Z,18.56
2022-07-29T05:29:07.228Z,18.63
2022-07-29T05:31:56.063Z,18.70
2022-07-29T05:34:23.933Z,18.76
2022-07-29T05:36:52.122Z,18.80
2022-07-29T05:39:21.763Z,18.82
2022-07-29T05:41:52.036Z,18.84
2022-07-29T05:44:21.813Z,18.87
2022-07-29T05:46:53.651Z,18.89
2022-07-29T05:49:27.276Z,18.89
2022-07-29T05:51:55.924Z,18.92
2022-07-29T05:54:23.706Z,18.95
2022-07-29T05:56:51.660Z,19.00
2022-07-29T05:59:20.030Z,19.06
2022-07-29T06:01:48.617Z,19.08
2022-07-29T06:04:17.687Z,19.12
2022-07-29T06:06:46.659Z,19.16
2022-07-29T06:09:14.981Z,19.19
2022-07-29T06:11:43.109Z,19.24
2022-07-29T06:14:11.257Z,19.28
2022-07-29T06:16:39.246Z,19.33
2022-07-29T06:19:07.631Z,19.39
2022-07-29T06:21:38.734Z,19.45
2022-07-29T06:24:14.602Z,19.54
2022-07-29T06:26:43.793Z,19.66
2022-07-29T06:29:12.703Z,19.77
2022-07-29T06:31:40.626Z,19.86
2022-07-29T06:34:08.921Z,19.95
2022-07-29T06:36:37.876Z,20.06
2022-07-29T06:39:07.959Z,20.17
2022-07-29T06:41:36.845Z,20.29
2022-07-29T06:44:11.676Z,20.45
2022-07-29T06:46:39.708Z,20.61
2022-07-29T06:49:08.738Z,20.77
2022-07-29T06:51:37.512Z,20.96
2022-07-29T06:54:06.832Z,21.14
2022-07-29T06:56:40.080Z,21.30
2022-07-29T06:59:10.944Z,21.42
2022-07-29T07:01:41.589Z,21.57
2022-07-29T07:04:11.583Z,21.72
2022-07-29T07:06:39.665Z,21.86
2022-07-29T07:09:07.774Z,21.99
2022-07-29T07:11:36.333Z,22.16
2022-07-29T07:14:04.474Z,22.31
2022-07-29T07:16:33.144Z,22.48
2022-07-29T07:19:01.887Z,22.63
2022-07-29T07:21:31.262Z,22.79
2022-07-29T07:24:00.448Z,22.95
2022-07-29T07:26:29.547Z,23.13
2022-07-29T07:28:58.119Z,23.33
2022-07-29T07:31:26.581Z,23.54
2022-07-29T07:33:55.178Z,23.71
2022-07-29T07:36:23.627Z,23.82
2022-07-29T07:38:51.505Z,23.94
2022-07-29T07:41:19.776Z,24.04
2022-07-29T07:43:48.008Z,24.11
2022-07-29T07:46:16.313Z,24.12
2022-07-29T07:48:44.909Z,24.16
2022-07-29T07:51:12.847Z,24.16
2022-07-29T07:53:40.983Z,24.19
2022-07-29T07:56:11.799Z,24.24
2022-07-29T07:58:40.658Z,24.31
2022-07-29T08:01:09.707Z,24.37
2022-07-29T08:03:38.574Z,24.43
2022-07-29T08:06:06.914Z,24.44
2022-07-29T08:08:34.984Z,24.43
2022-07-29T08:11:09.017Z,24.40
2022-07-29T08:13:39.148Z,24.42
2022-07-29T08:16:15.962Z,24.51
2022-07-29T08:18:46.043Z,24.60
2022-07-29T08:21:16.143Z,24.67
2022-07-29T08:23:57.650Z,24.83
2022-07-29T08:26:29.375Z,24.89
2022-07-29T08:28:57.193Z,24.96
2022-07-29T08:31:25.129Z,25.08
2022-07-29T08:33:53.333Z,25.23
2022-07-29T08:36:22.274Z,25.40
2022-07-29T08:38:50.691Z,25.53
2022-07-29T08:41:22.252Z,25.63
2022-07-29T08:43:51.156Z,25.72
2022-07-29T08:46:20.248Z,25.73
2022-07-29T08:48:48.947Z,25.77
2022-07-29T08:51:26.502Z,25.77
2022-07-29T08:53:57.402Z,25.92
2022-07-29T08:56:27.144Z,25.96
2022-07-29T08:58:56.123Z,25.95
2022-07-29T09:01:35.740Z,25.92
2022-07-29T09:04:11.160Z,25.93
2022-07-29T09:06:45.017Z,25.94
2022-07-29T09:09:14.838Z,26.00
2022-07-29T09:11:43.148Z,26.08
2022-07-29T09:14:13.582Z,26.22
2022-07-29T09:16:53.444Z,26.34
2022-07-29T09:19:30.698Z,26.42
2022-07-29T09:22:00.468Z,26.52
2022-07-29T09:24:43.395Z,26.61
2022-07-29T09:27:27.114Z,26.68
2022-07-29T09:30:05.513Z,26.76
2022-07-29T09:32:34.896Z,26.92
2022-07-29T09:35:23.126Z,27.09
2022-07-29T09:37:52.604Z,27.27
2022-07-29T09:40:23.516Z,27.42
2022-07-29T09:42:53.909Z,27.52
2022-07-29T09:45:34.415Z,27.61
2022-07-29T09:48:20.406Z,27.74
2022-07-29T09:50:50.696Z,27.86
2022-07-29T09:53:48.022Z,28.00
2022-07-29T09:56:17.073Z,28.20
2022-07-29T09:58:45.453Z,28.31
2022-07-29T10:01:15.169Z,28.37
2022-07-29T10:03:53.296Z,28.43
2022-07-29T10:06:21.807Z,28.55
2022-07-29T10:08:50.918Z,28.64
2022-07-29T10:11:20.453Z,28.72
2022-07-29T10:13:49.924Z,28.71
2022-07-29T10:16:18.104Z,28.72
2022-07-29T10:18:47.871Z,28.70
2022-07-29T10:21:34.973Z,28.70
2022-07-29T10:24:06.316Z,28.69
2022-07-29T10:26:34.649Z,28.69
2022-07-29T10:29:04.082Z,28.76
2022-07-29T10:31:45.651Z,28.83
2022-07-29T10:34:32.609Z,28.86
2022-07-29T10:37:19.745Z,28.83
2022-07-29T10:40:34.326Z,28.81
2022-07-29T10:46:08.666Z,28.95
2022-07-29T10:48:37.407Z,29.00
2022-07-29T10:51:09.773Z,29.08
2022-07-29T10:53:54.302Z,29.22
2022-07-29T10:56:27.489Z,29.37
2022-07-29T10:59:25.602Z,29.52
2022-07-29T11:02:10.674Z,29.66
2022-07-29T11:04:45.719Z,29.77
2022-07-29T11:07:17.536Z,29.87
2022-07-29T11:10:16.677Z,29.90
2022-07-29T11:12:48.913Z,30.03
2022-07-29T11:15:22.774Z,30.07
2022-07-29T11:17:59.419Z,30.15
2022-07-29T11:20:54.805Z,30.30
2022-07-29T11:23:42.854Z,30.39
2022-07-29T11:26:18.825Z,30.54
2022-07-29T11:28:49.849Z,30.67
2022-07-29T11:31:33.913Z,30.74
2022-07-29T11:34:23.589Z,30.78
2022-07-29T11:37:12.883Z,30.77
2022-07-29T11:39:44.502Z,30.71
2022-07-29T11:42:28.366Z,30.61
2022-07-29T11:45:09.254Z,30.49
2022-07-29T11:48:28.432Z,30.43
2022-07-29T11:50:50.317Z,30.46
2022-07-29T11:53:18.770Z,30.57
2022-07-29T11:55:51.514Z,30.53
2022-07-29T11:58:25.251Z,30.51
2022-07-29T12:00:56.191Z,30.55
2022-07-29T12:03:35.400Z,30.65
2022-07-29T12:06:13.409Z,30.67
2022-07-29T12:08:44.152Z,30.58
2022-07-29T12:11:20.378Z,30.44
2022-07-29T12:13:50.547Z,30.49
2022-07-29T12:16:25.626Z,30.62
2022-07-29T12:19:02.864Z,30.68
2022-07-29T12:21:52.350Z,30.90
2022-07-29T12:24:27.032Z,30.96
2022-07-29T12:27:00.747Z,30.92
2022-07-29T12:29:33.701Z,30.93
2022-07-29T12:32:05.275Z,30.77
2022-07-29T12:34:35.344Z,30.64
2022-07-29T12:37:03.533Z,30.58
2022-07-29T12:39:32.410Z,30.61
2022-07-29T12:42:04.608Z,30.70
2022-07-29T12:44:49.371Z,30.78
2022-07-29T12:47:19.317Z,30.89
2022-07-29T12:49:50.721Z,30.93
2022-07-29T12:52:32.433Z,30.99
2022-07-29T12:55:00.791Z,30.99
2022-07-29T12:57:29.485Z,31.05
2022-07-29T13:00:09.060Z,31.21
2022-07-29T13:02:39.346Z,31.44
2022-07-29T13:05:11.415Z,31.59
2022-07-29T13:07:54.325Z,31.81
2022-07-29T13:10:24.925Z,32.00
2022-07-29T13:13:16.483Z,32.06
2022-07-29T13:16:05.913Z,32.07
2022-07-29T13:18:38.820Z,31.99
2022-07-29T13:21:18.966Z,31.91
2022-07-29T13:23:47.385Z,31.78
2022-07-29T13:26:17.316Z,31.72
2022-07-29T13:28:45.552Z,31.68
2022-07-29T13:31:13.600Z,31.60
2022-07-29T13:33:41.619Z,31.69
2022-07-29T13:36:09.361Z,31.72
2022-07-29T13:38:37.147Z,31.67
2022-07-29T13:41:05.724Z,31.55
2022-07-29T13:43:34.210Z,31.43
2022-07-29T13:46:02.129Z,31.31
2022-07-29T13:48:29.975Z,31.21
2022-07-29T13:50:57.992Z,31.22
2022-07-29T13:53:26.811Z,31.30
2022-07-29T13:55:55.994Z,31.42
2022-07-29T13:58:24.008Z,31.52
2022-07-29T14:00:51.748Z,31.61
2022-07-29T14:03:19.806Z,31.66
2022-07-29T14:05:47.806Z,31.66
2022-07-29T14:08:16.235Z,31.67
2022-07-29T14:10:44.119Z,31.69
2022-07-29T14:13:24.485Z,31.67
2022-07-29T14:15:54.046Z,31.51
2022-07-29T14:18:21.910Z,31.39
2022-07-29T14:20:50.554Z,31.30
2022-07-29T14:23:20.252Z,31.31
2022-07-29T14:25:49.419Z,31.35
2022-07-29T14:28:17.874Z,31.42
2022-07-29T14:30:46.271Z,31.44
2022-07-29T14:33:14.686Z,31.38
2022-07-29T14:35:42.394Z,31.31
2022-07-29T14:38:10.495Z,31.25
2022-07-29T14:40:39.057Z,31.15
2022-07-29T14:43:07.073Z,31.15
2022-07-29T14:45:35.316Z,31.13
2022-07-29T14:48:03.336Z,31.13
2022-07-29T14:50:31.807Z,31.08
2022-07-29T14:53:01.818Z,30.98
2022-07-29T14:55:29.958Z,30.99
2022-07-29T14:58:07.699Z,30.98
2022-07-29T15:00:38.144Z,30.81
2022-07-29T15:03:06.474Z,30.64
2022-07-29T15:05:39.945Z,30.59
2022-07-29T15:08:09.178Z,30.51
2022-07-29T15:10:37.465Z,30.41
2022-07-29T15:13:06.332Z,30.18
2022-07-29T15:15:34.383Z,30.06
2022-07-29T15:18:02.352Z,29.95
2022-07-29T15:20:31.999Z,29.97
2022-07-29T15:22:59.863Z,30.05
2022-07-29T15:25:27.974Z,30.21
2022-07-29T15:28:01.142Z,30.53
2022-07-29T15:30:34.057Z,30.96
2022-07-29T15:33:04.610Z,31.27
2022-07-29T15:35:33.409Z,31.44
2022-07-29T15:38:08.954Z,31.49
2022-07-29T15:40:37.857Z,31.49
2022-07-29T15:43:07.631Z,31.46
2022-07-29T15:45:40.488Z,31.33
2022-07-29T15:48:10.134Z,31.18
2022-07-29T15:50:47.130Z,31.07
2022-07-29T15:53:15.311Z,30.91
2022-07-29T15:55:43.003Z,30.69
2022-07-29T15:58:13.715Z,30.52
2022-07-29T16:00:41.584Z,30.33
2022-07-29T16:03:09.342Z,30.17
2022-07-29T16:05:37.752Z,30.01
2022-07-29T16:08:05.654Z,29.90
2022-07-29T16:10:33.419Z,29.85
2022-07-29T16:13:01.965Z,29.86
2022-07-29T16:15:30.102Z,29.92
2022-07-29T16:17:57.877Z,30.03
2022-07-29T16:20:25.970Z,30.14
2022-07-29T16:22:54.251Z,30.33
2022-07-29T16:25:29.567Z,30.59
2022-07-29T16:28:06.901Z,30.80
2022-07-29T16:30:34.948Z,30.89
2022-07-29T16:33:07.795Z,30.81
2022-07-29T16:35:40.257Z,30.72
2022-07-29T16:38:08.141Z,30.61
2022-07-29T16:40:36.840Z,30.57
2022-07-29T16:43:05.023Z,30.50
2022-07-29T16:45:45.587Z,30.37
2022-07-29T16:48:15.297Z,30.26
2022-07-29T16:50:46.234Z,30.18
2022-07-29T16:53:14.022Z,30.19
2022-07-29T16:55:42.782Z,30.19
2022-07-29T16:58:11.157Z,30.17
2022-07-29T17:00:39.113Z,30.11
2022-07-29T17:03:07.879Z,30.08
2022-07-29T17:05:52.564Z,30.02
2022-07-29T17:08:22.992Z,29.89
2022-07-29T17:10:50.847Z,29.69
2022-07-29T17:13:18.666Z,29.53
2022-07-29T17:15:47.117Z,29.39
2022-07-29T17:18:14.828Z,29.29
2022-07-29T17:20:42.571Z,29.18
2022-07-29T17:23:10.875Z,29.05
2022-07-29T17:25:38.718Z,28.91
2022-07-29T17:28:06.514Z,28.79
2022-07-29T17:30:34.965Z,28.70
2022-07-29T17:33:02.711Z,28.68
2022-07-29T17:35:49.123Z,28.62
2022-07-29T17:38:17.704Z,28.48
2022-07-29T17:40:45.345Z,28.39
2022-07-29T17:43:13.919Z,28.26
2022-07-29T17:45:49.469Z,28.05
2022-07-29T17:48:21.542Z,27.82
2022-07-29T17:50:52.212Z,27.64
2022-07-29T17:53:20.154Z,27.50
2022-07-29T17:55:49.915Z,27.38
2022-07-29T17:58:17.972Z,27.20
2022-07-29T18:00:45.744Z,27.11
2022-07-29T18:03:14.349Z,27.17
2022-07-29T18:05:42.445Z,27.16
2022-07-29T18:08:10.440Z,27.10
2022-07-29T18:10:38.515Z,27.07
2022-07-29T18:13:07.338Z,27.06
2022-07-29T18:15:35.047Z,27.02
2022-07-29T18:18:02.965Z,26.97
2022-07-29T18:20:32.246Z,26.90
2022-07-29T18:23:00.609Z,26.81
2022-07-29T18:25:29.866Z,26.69
2022-07-29T18:28:00.553Z,26.58
2022-07-29T18:30:29.835Z,26.44
2022-07-29T18:33:19.793Z,26.31
2022-07-29T18:35:49.719Z,26.12
2022-07-29T18:38:17.843Z,25.91
2022-07-29T18:40:46.224Z,25.75
2022-07-29T18:43:15.806Z,25.59
2022-07-29T18:45:43.690Z,25.45
2022-07-29T18:48:13.207Z,25.29
2022-07-29T18:50:42.013Z,25.15
2022-07-29T18:53:09.872Z,25.02
2022-07-29T18:55:38.104Z,24.91
2022-07-29T18:58:07.285Z,24.76
2022-07-29T19:00:35.600Z,24.64
2022-07-29T19:03:03.742Z,24.53
2022-07-29T19:05:32.480Z,24.43
2022-07-29T19:08:00.588Z,24.32
2022-07-29T19:10:28.485Z,24.19
2022-07-29T19:12:56.994Z,24.08
2022-07-29T19:15:25.578Z,23.98
2022-07-29T19:17:56.549Z,23.87
2022-07-29T19:20:27.676Z,23.76
2022-07-29T19:22:56.354Z,23.66
2022-07-29T19:25:25.075Z,23.57
2022-07-29T19:27:54.773Z,23.46
2022-07-29T19:30:22.909Z,23.37
2022-07-29T19:32:50.676Z,23.27
2022-07-29T19:35:28.050Z,23.16
2022-07-29T19:37:57.852Z,23.11
2022-07-29T19:40:26.968Z,23.05
2022-07-29T19:42:55.314Z,22.99
2022-07-29T19:45:24.715Z,22.92
2022-07-29T19:47:56.538Z,22.84
2022-07-29T19:50:27.725Z,22.75
2022-07-29T19:52:56.938Z,22.67
2022-07-29T19:55:24.764Z,22.59
2022-07-29T19:57:55.812Z,22.52
2022-07-29T20:00:25.146Z,22.45
2022-07-29T20:02:56.529Z,22.39
2022-07-29T20:05:27.812Z,22.33
2022-07-29T20:07:56.333Z,22.27
2022-07-29T20:10:24.430Z,22.22
2022-07-29T20:12:53.762Z,22.17
2022-07-29T20:15:23.645Z,22.13
2022-07-29T20:17:56.635Z,22.09
2022-07-29T20:20:26.111Z,22.05
2022-07-29T20:22:54.547Z,22.02
2022-07-29T20:25:23.007Z,21.98
2022-07-29T20:27:52.519Z,21.95
2022-07-29T20:30:22.177Z,21.91
2022-07-29T20:32:50.744Z,21.87
2022-07-29T20:35:20.197Z,21.85
2022-07-29T20:37:52.425Z,21.81
2022-07-29T20:40:26.932Z,21.78
2022-07-29T20:42:55.933Z,21.77
2022-07-29T20:45:25.044Z,21.77
2022-07-29T20:47:53.287Z,21.75
2022-07-29T20:50:23.667Z,21.75
2022-07-29T20:52:52.759Z,21.73
2022-07-29T20:55:21.686Z,21.72
2022-07-29T20:57:49.863Z,21.71
2022-07-29T21:00:17.953Z,21.70
2022-07-29T21:02:47.403Z,21.68
2022-07-29T21:05:15.585Z,21.68
2022-07-29T21:07:43.388Z,21.67
2022-07-29T21:10:11.725Z,21.65
2022-07-29T21:12:40.019Z,21.63
2022-07-29T21:15:08.384Z,21.62
2022-07-29T21:17:38.961Z,21.60
2022-07-29T21:20:08.777Z,21.59
2022-07-29T21:22:36.574Z,21.56
2022-07-29T21:25:06.938Z,21.52
2022-07-29T21:27:53.349Z,21.46
2022-07-29T21:30:22.135Z,21.41
2022-07-29T21:32:50.016Z,21.36
2022-07-29T21:35:58.940Z,21.31
2022-07-29T21:38:06.252Z,21.24
2022-07-29T21:40:34.721Z,21.19
2022-07-29T21:43:02.759Z,21.14
2022-07-29T21:45:31.037Z,21.08
2022-07-29T21:48:00.614Z,21.00
2022-07-29T21:50:28.467Z,20.93
2022-07-29T21:52:57.658Z,20.87
2022-07-29T21:55:27.493Z,20.81
2022-07-29T21:57:57.403Z,20.75
2022-07-29T22:00:25.887Z,20.68
2022-07-29T22:02:54.587Z,20.63
2022-07-29T22:05:23.136Z,20.56
2022-07-29T22:07:54.567Z,20.50
2022-07-29T22:10:28.233Z,20.44
2022-07-29T22:13:01.993Z,20.40
2022-07-29T22:15:30.848Z,20.36
2022-07-29T22:18:00.407Z,20.31
2022-07-29T22:20:28.376Z,20.30
2022-07-29T22:22:57.277Z,20.28
2022-07-29T22:25:27.175Z,20.25
2022-07-29T22:27:55.386Z,20.23
2022-07-29T22:30:23.136Z,20.22
2022-07-29T22:32:51.079Z,20.21
2022-07-29T22:35:18.978Z,20.21
2022-07-29T22:37:46.962Z,20.21
2022-07-29T22:40:14.989Z,20.22
2022-07-29T22:42:44.408Z,20.21
2022-07-29T22:45:14.094Z,20.22
2022-07-29T22:47:48.472Z,20.22
2022-07-29T22:50:17.681Z,20.21
2022-07-29T22:52:46.997Z,20.21
2022-07-29T22:55:15.655Z,20.21
2022-07-29T22:57:43.404Z,20.20
2022-07-29T23:00:13.595Z,20.20
2022-07-29T23:02:41.796Z,20.19
2022-07-29T23:05:10.593Z,20.16
2022-07-29T23:07:39.364Z,20.15
2022-07-29T23:10:07.927Z,20.13
2022-07-29T23:12:35.926Z,20.10
2022-07-29T23:15:09.480Z,20.06
2022-07-29T23:17:41.419Z,20.03
2022-07-29T23:20:10.401Z,19.99
2022-07-29T23:22:38.249Z,19.95
2022-07-29T23:25:06.731Z,19.92
2022-07-29T23:27:34.903Z,19.89
2022-07-29T23:30:05.304Z,19.86
2022-07-29T23:32:33.178Z,19.83
2022-07-29T23:35:01.298Z,19.80
2022-07-29T23:37:29.085Z,19.77
2022-07-29T23:39:57.363Z,19.76
2022-07-29T23:42:25.517Z,19.75
2022-07-29T23:44:53.763Z,19.75
2022-07-29T23:47:21.758Z,19.75
2022-07-29T23:49:50.239Z,19.75
2022-07-29T23:52:21.362Z,19.75
2022-07-29T23:54:49.305Z,19.75
2022-07-29T23:57:18.486Z,19.76
2022-07-29T23:59:47.549Z,19.76
